Time;durP1;ratioP1;P1;durP2;ratioP2;P2;SDS_P1;SDS_P2;PMS_P1;PMS_P2;Temp;Humidity;BMP_temperature;BMP_pressure;BME280_temperature;BME280_humidity;BME280_pressure;Samples;Min_cycle;Max_cycle;Signal;HPM_P1;HPM_P2
2022/12/09 02:26:28;;;;;;;18.07;7.23;;;;;;;1.89;100.00;101095.38;1809225;79;22858;-75
2022/12/09 02:29:44;;;;;;;22.60;7.97;;;;;;;1.94;100.00;100631.02;1761828;80;21057;-75
2022/12/09 02:32:49;;;;;;;19.10;7.27;;;;;;;1.98;100.00;100660.52;1782904;80;21022;-75
2022/12/09 02:35:24;;;;;;;19.65;7.65;;;;;;;2.01;100.00;100680.33;1783030;80;21033;-75
2022/12/09 02:38:21;;;;;;;23.43;8.37;;;;;;;2.01;100.00;100676.33;1783076;80;21014;-75
2022/12/09 02:41:15;;;;;;;19.17;7.37;;;;;;;2.00;100.00;100690.61;1782796;80;21017;-74
2022/12/09 02:43:51;;;;;;;19.07;7.40;;;;;;;2.00;100.00;100696.82;1783078;80;21479;-75
2022/12/09 02:46:19;;;;;;;22.57;7.77;;;;;;;2.03;100.00;100697.09;1782660;80;21065;-75
2022/12/09 02:48:51;;;;;;;19.40;7.63;;;;;;;2.04;100.00;100713.48;1753202;80;21022;-75
2022/12/09 02:51:18;;;;;;;22.37;7.53;;;;;;;2.06;100.00;100718.23;1782717;80;21037;-75
2022/12/09 02:53:50;;;;;;;19.77;8.40;;;;;;;2.08;100.00;100716.32;1783109;80;21008;-76
2022/12/09 02:56:17;;;;;;;21.33;8.47;;;;;;;2.06;100.00;100639.53;1783149;80;21061;-75
2022/12/09 02:58:47;;;;;;;19.57;8.23;;;;;;;2.09;100.00;100632.67;1783189;80;21021;-75
2022/12/09 03:01:26;;;;;;;20.23;7.97;;;;;;;2.11;100.00;100636.55;1752856;80;20994;-73
2022/12/09 03:03:53;;;;;;;20.10;8.13;;;;;;;2.12;100.00;100637.78;1782399;80;21486;-75
2022/12/09 03:06:20;;;;;;;19.00;7.90;;;;;;;2.11;100.00;100645.42;1782657;80;21037;-75
2022/12/09 03:08:54;;;;;;;14.70;6.50;;;;;;;2.13;100.00;100646.66;1783027;80;21065;-74
2022/12/09 03:11:23;;;;;;;16.93;7.03;;;;;;;2.13;100.00;100646.17;1782813;80;20998;-74
2022/12/09 03:14:07;;;;;;;13.60;6.43;;;;;;;2.15;100.00;100638.07;1783132;80;21048;-74
2022/12/09 03:16:56;;;;;;;13.60;6.10;;;;;;;2.16;100.00;100635.77;1782754;80;20986;-74
2022/12/09 03:19:48;;;;;;;13.60;6.77;;;;;;;2.17;100.00;100637.00;1782895;80;21056;-74
2022/12/09 03:22:23;;;;;;;17.63;6.53;;;;;;;2.19;100.00;100638.23;1782626;80;20986;-75
2022/12/09 03:25:07;;;;;;;14.50;6.30;;;;;;;2.21;100.00;100637.19;1785722;80;21068;-75
2022/12/09 03:27:50;;;;;;;15.93;6.70;;;;;;;2.22;100.00;100644.22;1791093;80;21523;-75
2022/12/09 03:30:18;;;;;;;19.73;6.85;;;;;;;2.23;100.00;100647.28;1791524;80;21029;-75
2022/12/09 03:32:45;;;;;;;17.43;7.13;;;;;;;2.25;100.00;100648.52;1791226;80;21531;-75
2022/12/09 03:35:20;;;;;;;21.57;8.40;;;;;;;2.25;100.00;100644.02;1791287;80;21063;-75
2022/12/09 03:37:47;;;;;;;21.70;8.40;;;;;;;2.27;100.00;100654.11;1791023;80;21475;-75
2022/12/09 03:40:17;;;;;;;23.80;10.47;;;;;;;2.31;100.00;100657.91;1791478;80;21025;-74
2022/12/09 03:43:05;;;;;;;34.50;14.63;;;;;;;2.34;100.00;100659.02;1791647;80;21498;-75
2022/12/09 03:45:33;;;;;;;48.17;19.67;;;;;;;2.35;100.00;100666.93;1791372;80;21035;-75
2022/12/09 03:48:00;;;;;;;55.90;24.10;;;;;;;2.36;100.00;100660.64;1791568;80;21540;-75
2022/12/09 03:50:32;;;;;;;63.30;26.13;;;;;;;2.37;100.00;100663.67;1791349;80;21021;-74
2022/12/09 03:53:07;;;;;;;60.37;23.63;;;;;;;2.38;100.00;100668.06;1791798;80;21018;-75
2022/12/09 03:56:00;;;;;;;31.37;13.27;;;;;;;2.39;100.00;100666.24;1791902;80;21463;-75
2022/12/09 03:58:28;;;;;;;24.70;11.23;;;;;;;2.36;100.00;100660.64;1791767;80;20978;-76
2022/12/09 04:00:55;;;;;;;28.70;11.47;;;;;;;2.34;100.00;100657.23;1791551;80;21061;-76
2022/12/09 04:03:22;;;;;;;30.43;12.67;;;;;;;2.32;100.00;100660.48;1791680;80;21026;-76
2022/12/09 04:05:49;;;;;;;30.03;12.10;;;;;;;2.32;100.00;100656.48;1765490;80;21033;-75
2022/12/09 04:08:16;;;;;;;23.90;9.53;;;;;;;2.33;100.00;100660.00;1791775;80;21036;-76
2022/12/09 04:10:44;;;;;;;24.80;9.77;;;;;;;2.32;100.00;100654.27;1791270;80;21018;-75
2022/12/09 04:13:11;;;;;;;22.67;9.20;;;;;;;2.34;100.00;100655.89;1791367;80;20998;-75
2022/12/09 04:15:38;;;;;;;29.13;11.17;;;;;;;2.33;100.00;100656.00;1791599;80;20982;-75
2022/12/09 04:18:05;;;;;;;23.90;10.03;;;;;;;2.31;100.00;100660.09;1764998;80;21053;-75
2022/12/09 04:20:32;;;;;;;23.67;9.87;;;;;;;2.31;100.00;100655.25;1791446;80;21021;-75
2022/12/09 04:23:00;;;;;;;22.00;8.83;;;;;;;2.30;100.00;100657.53;1791340;80;21017;-74
2022/12/09 04:25:27;;;;;;;28.17;10.10;;;;;;;2.29;100.00;100652.67;1786090;80;21021;-76
2022/12/09 04:27:55;;;;;;;24.57;10.47;;;;;;;2.28;100.00;100653.63;1782496;80;21021;-75
2022/12/09 04:30:24;;;;;;;23.47;9.00;;;;;;;2.28;100.00;100653.63;1728156;80;21069;-74
2022/12/09 04:32:52;;;;;;;22.53;8.27;;;;;;;2.27;100.00;100652.77;1782295;80;21037;-76
2022/12/09 04:35:19;;;;;;;21.90;9.10;;;;;;;2.28;100.00;100654.50;1782374;80;21045;-74
2022/12/09 04:37:46;;;;;;;22.80;8.03;;;;;;;2.27;100.00;100650.59;1782285;80;21053;-76
2022/12/09 04:40:14;;;;;;;20.47;7.53;;;;;;;2.29;100.00;100651.34;1782608;80;21021;-74
2022/12/09 04:42:41;;;;;;;20.77;7.97;;;;;;;2.28;100.00;100653.16;1782402;80;21022;-75
2022/12/09 04:45:10;;;;;;;21.83;8.57;;;;;;;2.30;100.00;100651.70;1782450;80;21026;-75
2022/12/09 04:47:37;;;;;;;23.13;8.80;;;;;;;2.29;100.00;100650.01;1782573;80;20982;-74
2022/12/09 04:50:06;;;;;;;25.20;9.07;;;;;;;2.28;100.00;100650.95;1782223;80;21034;-76
2022/12/09 04:52:33;;;;;;;23.87;9.70;;;;;;;2.30;100.00;100657.03;1782453;80;21522;-75
2022/12/09 04:55:01;;;;;;;25.40;9.60;;;;;;;2.31;100.00;100655.25;1752260;80;21033;-74
2022/12/09 04:57:28;;;;;;;18.77;8.03;;;;;;;2.31;100.00;100654.76;1782545;80;21038;-75
2022/12/09 04:59:55;;;;;;;22.77;9.00;;;;;;;2.31;100.00;100662.77;1782556;80;20994;-75
2022/12/09 05:02:23;;;;;;;21.57;8.00;;;;;;;2.31;100.00;100661.92;1782378;80;20990;-75
2022/12/09 05:04:50;;;;;;;20.63;7.83;;;;;;;2.32;100.00;100661.82;1782339;80;21044;-76
2022/12/09 05:07:17;;;;;;;20.63;8.30;;;;;;;2.32;100.00;100657.81;1782484;80;21026;-75
2022/12/09 05:09:44;;;;;;;21.47;9.30;;;;;;;2.33;100.00;100656.00;1782348;80;21026;-76
2022/12/09 05:12:12;;;;;;;19.73;7.87;;;;;;;2.35;100.00;100659.41;1782334;80;21472;-75
2022/12/09 05:14:40;;;;;;;20.23;7.93;;;;;;;2.34;100.00;100661.69;1782291;80;21037;-74
2022/12/09 05:17:07;;;;;;;23.20;9.30;;;;;;;2.35;100.00;100659.41;1782501;80;21005;-75
2022/12/09 05:19:35;;;;;;;21.93;8.87;;;;;;;2.35;100.00;100670.09;1782326;80;20994;-74
2022/12/09 05:22:02;;;;;;;24.97;9.83;;;;;;;2.36;100.00;100669.14;1782674;79;21034;-76
2022/12/09 05:24:30;;;;;;;23.90;9.10;;;;;;;2.37;100.00;100676.17;1752950;80;21060;-75
2022/12/09 05:26:58;;;;;;;24.63;9.77;;;;;;;2.37;100.00;100665.01;1791206;80;21541;-75
2022/12/09 05:29:25;;;;;;;24.90;8.93;;;;;;;2.38;100.00;100660.06;1791338;80;21084;-75
2022/12/09 05:31:53;;;;;;;31.77;10.30;;;;;;;2.40;100.00;100661.30;1791227;80;21490;-74
2022/12/09 05:34:20;;;;;;;34.73;11.50;;;;;;;2.39;100.00;100654.23;1791209;80;21049;-74
2022/12/09 05:36:47;;;;;;;30.10;11.13;;;;;;;2.40;100.00;100650.62;1791481;80;20954;-75
2022/12/09 05:39:14;;;;;;;25.10;9.93;;;;;;;2.41;100.00;100654.52;1791522;80;20996;-74
2022/12/09 05:41:42;;;;;;;25.13;10.00;;;;;;;2.42;100.00;100652.70;1791158;80;21070;-75
2022/12/09 05:44:10;;;;;;;28.07;10.50;;;;;;;2.42;100.00;100650.03;1791009;80;21029;-74
2022/12/09 05:46:37;;;;;;;26.13;10.20;;;;;;;2.43;100.00;100650.42;1790934;80;20998;-75
2022/12/09 05:49:07;;;;;;;32.83;11.57;;;;;;;2.44;100.00;100641.44;1791264;80;21091;-76
2022/12/09 05:51:35;;;;;;;24.90;10.40;;;;;;;2.46;100.00;100648.85;1790944;80;21014;-75
2022/12/09 05:54:04;;;;;;;26.63;10.43;;;;;;;2.47;100.00;100651.91;1790999;80;21491;-75
2022/12/09 05:56:32;;;;;;;23.27;9.63;;;;;;;2.49;100.00;100646.47;1791521;80;21033;-75
2022/12/09 05:58:59;;;;;;;23.47;9.77;;;;;;;2.50;100.00;100644.16;1791111;80;20969;-76
2022/12/09 06:01:26;;;;;;;19.57;8.33;;;;;;;2.52;100.00;100643.60;1791436;80;21024;-76
2022/12/09 06:03:53;;;;;;;21.07;9.07;;;;;;;2.51;100.00;100648.06;1791080;80;21594;-77
2022/12/09 06:06:25;;;;;;;20.60;8.23;;;;;;;2.53;100.00;100643.95;1791517;80;21045;-77
2022/12/09 06:08:55;;;;;;;19.03;7.67;;;;;;;2.55;100.00;100644.25;1791522;80;21511;-76
2022/12/09 06:11:22;;;;;;;18.17;7.00;;;;;;;2.57;100.00;100640.14;1791386;80;21064;-77
2022/12/09 06:13:49;;;;;;;19.87;7.67;;;;;;;2.57;100.00;100638.31;1791320;80;21552;-76
2022/12/09 06:16:19;;;;;;;17.73;7.63;;;;;;;2.60;100.00;100631.90;1791410;80;21013;-78
2022/12/09 06:18:47;;;;;;;19.13;7.30;;;;;;;2.61;100.00;100629.62;1791598;80;21028;-78
2022/12/09 06:21:15;;;;;;;19.33;8.50;;;;;;;2.61;100.00;100632.28;1791528;80;21028;-77
2022/12/09 06:23:42;;;;;;;16.70;6.90;;;;;;;2.61;100.00;100633.63;1791112;80;21018;-75
2022/12/09 06:26:25;;;;;;;18.63;7.20;;;;;;;2.62;100.00;100637.98;1785684;80;21088;-76
2022/12/09 06:28:53;;;;;;;19.20;7.40;;;;;;;2.64;100.00;100638.77;1782636;80;21005;-78
2022/12/09 06:31:20;;;;;;;19.00;6.50;;;;;;;2.64;100.00;100638.77;1782454;80;21001;-78
2022/12/09 06:33:49;;;;;;;14.83;6.37;;;;;;;2.63;100.00;100641.89;1782229;80;21034;-80
2022/12/09 06:36:18;;;;;;;16.93;6.60;;;;;;;2.66;100.00;100635.50;1782447;80;21037;-77
2022/12/09 06:38:46;;;;;;;18.57;6.80;;;;;;;2.66;100.00;100632.34;1782136;80;21479;-77
2022/12/09 06:41:14;;;;;;;18.27;7.10;;;;;;;2.68;100.00;100630.91;1782207;80;21062;-78
2022/12/09 06:43:42;;;;;;;14.90;6.90;;;;;;;2.69;100.00;100624.58;1782538;80;20990;-78
2022/12/09 06:46:19;;;;;;;15.17;6.33;;;;;;;2.70;100.00;100621.45;1782332;80;21063;-77
2022/12/09 06:48:46;;;;;;;16.57;6.80;;;;;;;2.70;100.00;100620.12;1782506;80;21022;-77
2022/12/09 06:51:14;;;;;;;14.33;6.37;;;;;;;2.71;100.00;100612.47;1782503;80;21030;-78
2022/12/09 06:53:41;;;;;;;14.27;6.30;;;;;;;2.71;100.00;100609.80;1782343;80;21021;-77
2022/12/09 06:56:10;;;;;;;15.83;6.87;;;;;;;2.72;100.00;100612.85;1782159;80;21002;-77
2022/12/09 06:58:39;;;;;;;11.33;5.40;;;;;;;2.74;100.00;100610.92;1781865;80;21480;-77
2022/12/09 07:01:13;;;;;;;17.20;6.60;;;;;;;2.75;100.00;100612.64;1782428;80;21503;-77
2022/12/09 07:03:41;;;;;;;15.97;6.97;;;;;;;2.78;100.00;100615.08;1782688;80;21081;-77
2022/12/09 07:06:31;;;;;;;14.30;6.13;;;;;;;2.79;100.00;100604.78;1782323;80;21061;-78
2022/12/09 07:09:01;;;;;;;13.77;5.70;;;;;;;2.79;100.00;100604.30;1783066;80;21057;-80
2022/12/09 07:11:28;;;;;;;16.50;7.03;;;;;;;2.81;100.00;100610.37;1782997;80;21115;-78
2022/12/09 07:13:55;;;;;;;16.83;6.67;;;;;;;2.82;100.00;100613.44;1782684;80;21009;-79
2022/12/09 07:16:24;;;;;;;14.73;7.20;;;;;;;2.84;100.00;100617.34;1783335;80;21057;-78
2022/12/09 07:18:51;;;;;;;15.97;7.17;;;;;;;2.84;100.00;100615.52;1783307;80;20989;-78
2022/12/09 07:21:19;;;;;;;15.27;6.57;;;;;;;2.85;100.00;100622.58;1782855;80;21018;-79
2022/12/09 07:23:46;;;;;;;18.97;8.30;;;;;;;2.88;100.00;100620.65;1783241;80;21014;-79
2022/12/09 07:26:14;;;;;;;17.10;7.20;;;;;;;2.89;100.00;100617.88;1783213;80;21065;-77
2022/12/09 07:28:42;;;;;;;18.20;7.73;;;;;;;2.89;100.00;100627.72;1782549;80;21044;-78
2022/12/09 07:31:23;;;;;;;18.00;7.60;;;;;;;2.89;100.00;100623.22;1770139;80;21523;-75
2022/12/09 07:33:51;;;;;;;18.73;8.10;;;;;;;2.88;100.00;100617.48;1768150;80;21041;-78
2022/12/09 07:36:20;;;;;;;15.43;6.50;;;;;;;2.87;100.00;100617.13;1764317;80;20994;-76
2022/12/09 07:38:50;;;;;;;19.33;8.50;;;;;;;2.87;100.00;100617.13;1759692;80;21044;-74
2022/12/09 07:41:18;;;;;;;14.60;6.80;;;;;;;2.85;100.00;100619.03;1700110;83;21460;-74
2022/12/09 07:43:48;;;;;;;19.83;8.30;;;;;;;2.87;100.00;100622.94;1725253;83;20975;-76
2022/12/09 07:46:17;;;;;;;20.33;7.20;;;;;;;2.87;100.00;100624.27;1724407;83;21032;-77
2022/12/09 07:48:45;;;;;;;15.60;6.30;;;;;;;2.88;100.00;100630.84;1724470;83;21032;-77
2022/12/09 07:51:14;;;;;;;16.97;6.80;;;;;;;2.87;100.00;100627.81;1723304;83;21024;-77
2022/12/09 07:53:42;;;;;;;17.83;7.03;;;;;;;2.89;100.00;100628.56;1717774;83;21047;-77
2022/12/09 07:56:12;;;;;;;15.27;6.33;;;;;;;2.90;100.00;100620.05;1717483;83;21476;-74
2022/12/09 07:58:39;;;;;;;15.70;6.90;;;;;;;2.94;100.00;100616.20;1714296;83;21067;-76
2022/12/09 08:01:12;;;;;;;17.17;6.77;;;;;;;2.95;100.00;100613.42;1718041;83;21540;-74
2022/12/09 08:03:40;;;;;;;17.83;6.53;;;;;;;2.98;100.00;100605.69;1718089;83;21615;-76
2022/12/09 08:06:21;;;;;;;17.13;7.50;;;;;;;3.00;100.00;100596.59;1713243;83;21563;-68
2022/12/09 08:08:51;;;;;;;17.70;7.20;;;;;;;3.03;100.00;100599.05;1716497;83;21082;-68
2022/12/09 08:11:22;;;;;;;17.23;7.20;;;;;;;3.06;100.00;100603.31;1712191;83;21218;-68
2022/12/09 08:13:50;;;;;;;14.60;6.53;;;;;;;3.07;100.00;100605.52;1716440;83;21529;-69
2022/12/09 08:16:20;;;;;;;12.70;6.13;;;;;;;3.07;100.00;100602.84;1712198;84;21063;-68
2022/12/09 08:18:49;;;;;;;21.50;8.87;;;;;;;3.06;100.00;100597.12;1717013;83;21004;-70
2022/12/09 08:21:21;;;;;;;16.83;6.77;;;;;;;3.05;100.00;100582.91;1717638;83;21039;-67
2022/12/09 08:23:49;;;;;;;20.23;7.73;;;;;;;3.05;100.00;100578.91;1713774;83;21051;-69
2022/12/09 08:26:18;;;;;;;14.97;6.37;;;;;;;3.07;100.00;100576.97;1712711;83;21088;-69
2022/12/09 08:28:47;;;;;;;16.50;6.53;;;;;;;3.08;100.00;100571.14;1700506;83;21540;-75
2022/12/09 08:31:17;;;;;;;17.83;6.90;;;;;;;3.10;100.00;100573.22;1728499;82;21033;-69
2022/12/09 08:33:44;;;;;;;18.20;6.97;;;;;;;3.10;100.00;100569.20;1710193;84;21043;-68
2022/12/09 08:36:17;;;;;;;17.57;7.00;;;;;;;3.08;100.00;100565.34;1728443;83;21021;-67
2022/12/09 08:38:44;;;;;;;17.45;6.92;;;;;;;3.10;100.00;100572.76;1710093;83;21086;-70
2022/12/09 08:41:14;;;;;;;16.53;6.87;;;;;;;3.11;100.00;100572.27;1727335;82;21521;-67
2022/12/09 08:43:42;;;;;;;15.77;6.23;;;;;;;3.12;100.00;100558.80;1727165;83;21123;-69
2022/12/09 08:46:09;;;;;;;19.77;7.63;;;;;;;3.12;100.00;100553.45;1727739;83;21040;-69
2022/12/09 08:48:38;;;;;;;17.77;7.43;;;;;;;3.13;100.00;100554.30;1727007;83;21063;-69
2022/12/09 08:51:07;;;;;;;16.07;6.43;;;;;;;3.13;100.00;100558.31;1727889;83;21433;-70
2022/12/09 08:53:34;;;;;;;16.23;6.53;;;;;;;3.11;100.00;100553.06;1727879;83;21107;-67
2022/12/09 08:56:10;;;;;;;15.30;7.53;;;;;;;3.10;100.00;100546.03;1728388;83;21481;-68
2022/12/09 08:58:37;;;;;;;17.13;6.80;;;;;;;3.10;100.00;100554.05;1728191;83;21470;-68
2022/12/09 09:01:07;;;;;;;18.80;8.30;;;;;;;3.10;100.00;100549.16;1728598;83;21095;-69
2022/12/09 09:03:34;;;;;;;18.03;7.27;;;;;;;3.09;100.00;100548.81;1728538;83;21084;-69
2022/12/09 09:06:06;;;;;;;19.60;8.50;;;;;;;3.09;100.00;100549.66;1728604;83;21087;-69
2022/12/09 09:08:33;;;;;;;20.23;9.23;;;;;;;3.10;100.00;100549.16;1728568;83;21032;-68
2022/12/09 09:11:01;;;;;;;19.97;9.03;;;;;;;3.10;100.00;100544.70;1728354;82;21079;-69
2022/12/09 09:13:28;;;;;;;20.37;8.70;;;;;;;3.09;100.00;100524.27;1728630;82;21535;-68
2022/12/09 09:15:55;;;;;;;19.33;8.10;;;;;;;3.10;100.00;100531.80;1728354;83;21052;-68
2022/12/09 09:18:22;;;;;;;19.50;8.13;;;;;;;3.08;100.00;100526.59;1727239;83;21066;-70
2022/12/09 09:20:52;;;;;;;18.20;8.00;;;;;;;3.08;100.00;100529.72;1726820;82;21166;-70
2022/12/09 09:23:21;;;;;;;18.57;7.93;;;;;;;3.07;100.00;100530.70;1726948;83;21083;-69
2022/12/09 09:25:48;;;;;;;18.00;7.60;;;;;;;3.06;100.00;100520.97;1724611;83;22243;-69
2022/12/09 09:28:15;;;;;;;19.17;7.83;;;;;;;3.03;100.00;100517.56;1708617;83;21067;-68
2022/12/09 09:30:42;;;;;;;21.20;8.03;;;;;;;3.03;100.00;100516.72;1723715;83;21098;-70
2022/12/09 09:33:09;;;;;;;20.50;8.20;;;;;;;3.02;100.00;100504.31;1724586;83;21015;-67
2022/12/09 09:35:37;;;;;;;23.03;8.40;;;;;;;3.02;100.00;100505.16;1725016;83;21046;-67
2022/12/09 09:38:04;;;;;;;20.07;7.83;;;;;;;3.02;100.00;100504.31;1725097;83;21520;-70
2022/12/09 09:40:32;;;;;;;16.10;6.67;;;;;;;3.01;100.00;100511.48;1697437;84;21078;-69
2022/12/09 09:43:00;;;;;;;21.03;7.43;;;;;;;3.03;100.00;100498.86;1697826;84;21068;-69
2022/12/09 09:45:28;;;;;;;19.97;7.57;;;;;;;3.05;100.00;100490.73;1697544;84;21030;-69
2022/12/09 09:48:01;;;;;;;21.30;8.37;;;;;;;3.02;100.00;100483.78;1723013;83;20983;-69
2022/12/09 09:50:36;;;;;;;15.60;6.50;;;;;;;3.04;100.00;100479.17;1725097;83;21059;-69
2022/12/09 09:53:25;;;;;;;18.27;7.10;;;;;;;3.04;100.00;100476.50;1725266;83;21491;-68
2022/12/09 09:56:20;;;;;;;17.70;7.43;;;;;;;3.03;100.00;100470.80;1725817;83;21124;-68
2022/12/09 09:59:13;;;;;;;16.63;6.97;;;;;;;3.03;100.00;100469.47;1726178;83;21013;-71
2022/12/09 10:19:10;;;;;;;23.63;9.43;;;;;;;3.26;100.00;100698.13;1807380;79;23441;-69
2022/12/09 10:21:41;;;;;;;17.87;8.00;;;;;;;3.28;100.00;100387.48;1770037;81;21046;-70
2022/12/09 10:24:25;;;;;;;16.87;7.73;;;;;;;3.27;100.00;100388.44;1742637;80;21010;-68
2022/12/09 10:27:06;;;;;;;20.37;7.78;;;;;;;3.26;100.00;100384.54;1739730;82;21053;-68
2022/12/09 10:29:59;;;;;;;22.43;8.23;;;;;;;3.23;100.00;100381.62;1750126;80;21001;-68
2022/12/09 10:32:30;;;;;;;21.40;9.20;;;;;;;3.22;100.00;100371.44;1680887;85;21057;-68
2022/12/09 10:34:57;;;;;;;22.93;10.23;;;;;;;3.21;100.00;100352.34;1725286;81;20978;-68
2022/12/09 10:37:28;;;;;;;23.23;10.10;;;;;;;3.23;100.00;100358.91;1749451;81;20964;-69
2022/12/09 10:40:12;;;;;;;24.67;9.80;;;;;;;3.22;100.00;100338.03;1740641;80;21590;-68
2022/12/09 10:45:50;;;;;;;17.83;8.00;;;;;;;3.25;100.00;100343.61;1755650;80;20990;-69
2022/12/09 10:48:41;;;;;;;19.80;8.63;;;;;;;3.25;100.00;100339.60;1770384;80;21104;-69
2022/12/09 10:51:27;;;;;;;29.47;11.37;;;;;;;3.30;100.00;100352.63;1741172;80;21179;-67
2022/12/09 10:54:12;;;;;;;25.17;10.10;;;;;;;3.30;100.00;100357.48;1743795;81;21064;-69
2022/12/09 10:57:00;;;;;;;22.43;10.20;;;;;;;3.29;100.00;100362.44;1692447;83;21030;-66
2022/12/09 10:59:28;;;;;;;22.97;9.67;;;;;;;3.28;100.00;100356.75;1695719;81;21033;-68
2022/12/09 11:02:12;;;;;;;20.57;9.03;;;;;;;3.27;100.00;100363.05;1750215;81;21568;-68
2022/12/09 11:04:42;;;;;;;22.17;8.18;;;;;;;3.29;100.00;100365.11;1709565;84;21045;-68
2022/12/09 11:07:21;;;;;;;20.00;7.70;;;;;;;3.28;100.00;100362.59;1679184;85;21104;-69
2022/12/09 11:09:57;;;;;;;21.67;8.67;;;;;;;3.30;100.00;100366.83;1724658;82;21222;-70
2022/12/09 11:12:31;;;;;;;22.43;9.43;;;;;;;3.30;100.00;100369.51;1701206;83;21507;-70
2022/12/09 11:15:01;;;;;;;25.30;10.20;;;;;;;3.31;100.00;100367.67;1737851;82;21041;-68
2022/12/09 11:17:35;;;;;;;21.73;8.80;;;;;;;3.30;100.00;100366.83;1736931;81;21045;-68
2022/12/09 11:20:18;;;;;;;22.13;8.53;;;;;;;3.31;100.00;100369.02;1729569;82;21025;-70
2022/12/09 11:22:45;;;;;;;24.13;9.90;;;;;;;3.32;100.00;100373.41;1743965;82;21566;-70
2022/12/09 11:25:26;;;;;;;23.20;8.87;;;;;;;3.34;100.00;100374.98;1752804;81;20974;-70
2022/12/09 11:28:02;;;;;;;20.47;7.47;;;;;;;3.34;100.00;100372.80;1748350;81;21029;-67
2022/12/09 11:30:39;;;;;;;21.80;8.57;;;;;;;3.34;100.00;100374.98;1740259;81;21108;-66
2022/12/09 11:33:27;;;;;;;20.23;8.50;;;;;;;3.35;100.00;100375.85;1725406;82;20999;-67
2022/12/09 11:36:08;;;;;;;22.53;10.13;;;;;;;3.35;100.00;100375.85;1724413;82;21050;-66
2022/12/09 11:38:44;;;;;;;20.20;8.70;;;;;;;3.35;100.00;100376.70;1720893;82;21029;-67
2022/12/09 11:43:53;;;;;;;22.60;8.77;;;;;;;3.38;100.00;100383.61;1669819;82;21011;-70
2022/12/09 11:46:29;;;;;;;21.60;8.37;;;;;;;3.38;100.00;100378.27;1719249;82;21065;-69
2022/12/09 11:49:13;;;;;;;20.07;7.50;;;;;;;3.38;100.00;100380.94;1713755;82;20998;-68
2022/12/09 11:51:45;;;;;;;19.83;7.83;;;;;;;3.36;100.00;100371.70;1713412;82;21074;-69
2022/12/09 11:54:23;;;;;;;19.53;7.97;;;;;;;3.37;100.00;100369.90;1726806;81;21021;-75
2022/12/09 11:56:50;;;;;;;23.67;10.23;;;;;;;3.35;100.00;100365.16;1728906;82;21038;-75
2022/12/09 11:59:21;;;;;;;22.07;9.27;;;;;;;3.35;100.00;100355.80;1689162;84;21070;-75
2022/12/09 12:02:14;;;;;;;20.63;7.77;;;;;;;3.34;100.00;100361.61;1715050;84;20991;-75
2022/12/09 12:04:57;;;;;;;;;;;;;;;3.34;100.00;100364.28;1719536;84;21042;-75
2022/12/09 12:07:41;;;;;;;20.47;8.73;;;;;;;3.34;100.00;100366.95;1677639;84;20158;-75
2022/12/09 12:10:24;;;;;;;20.90;8.80;;;;;;;3.34;100.00;100366.11;1685527;84;21040;-68
2022/12/09 12:13:15;;;;;;;19.00;8.13;;;;;;;3.33;100.00;100363.06;1684421;85;21066;-69
2022/12/09 12:16:21;;;;;;;19.37;7.83;;;;;;;3.33;100.00;100357.72;1713701;84;21086;-67
2022/12/09 12:19:08;;;;;;;18.63;7.53;;;;;;;3.34;100.00;100355.42;1707061;84;21125;-67
2022/12/09 12:22:08;;;;;;;20.80;7.37;;;;;;;3.31;100.00;100355.19;1655735;86;21628;-69
2022/12/09 12:24:49;;;;;;;18.10;6.80;;;;;;;3.31;100.00;100354.31;1706243;84;21073;-68
2022/12/09 12:27:45;;;;;;;18.97;7.77;;;;;;;3.28;100.00;100343.88;1712647;84;21046;-68
2022/12/09 12:30:20;;;;;;;21.97;8.53;;;;;;;3.31;100.00;100359.20;1655221;87;21561;-67
2022/12/09 12:33:11;;;;;;;20.50;8.77;;;;;;;3.28;100.00;100349.22;1655248;87;21092;-68
2022/12/09 12:36:04;;;;;;;22.13;8.93;;;;;;;3.31;100.00;100343.62;1691143;84;21163;-68
2022/12/09 12:38:45;;;;;;;21.27;9.33;;;;;;;3.31;100.00;100346.30;1711594;84;21379;-68
2022/12/09 12:42:03;;;;;;;20.57;8.83;;;;;;;3.30;100.00;100349.95;1711334;84;21026;-68
2022/12/09 12:47:47;;;;;;;19.87;7.55;;;;;;;3.29;100.00;100333.05;1707404;82;21034;-67
2022/12/09 12:50:44;;;;;;;19.40;7.97;;;;;;;3.27;100.00;100325.63;1703212;82;21133;-69
2022/12/09 12:53:31;;;;;;;18.10;7.00;;;;;;;3.30;100.00;100329.91;1707312;82;21121;-68
2022/12/09 12:56:06;;;;;;;17.97;7.60;;;;;;;3.30;100.00;100328.08;1689546;84;21544;-68
2022/12/09 12:59:06;;;;;;;20.07;7.50;;;;;;;3.30;100.00;100326.73;1709206;83;21532;-67
2022/12/09 13:02:03;;;;;;;17.73;7.23;;;;;;;3.30;100.00;100324.56;1676399;84;21069;-68
2022/12/09 13:04:51;;;;;;;21.33;7.93;;;;;;;3.30;100.00;100320.55;1710148;83;21023;-70
2022/12/09 13:07:42;;;;;;;21.63;8.37;;;;;;;3.29;100.00;100322.34;1683701;84;21144;-67
2022/12/09 13:10:38;;;;;;;16.63;6.53;;;;;;;3.31;100.00;100322.23;1708421;84;21019;-68
2022/12/09 13:13:26;;;;;;;17.17;6.83;;;;;;;3.32;100.00;100314.11;1705890;82;21070;-68
2022/12/09 13:15:55;;;;;;;20.43;6.90;;;;;;;3.32;100.00;100311.44;1727653;83;21023;-68
2022/12/09 13:18:29;;;;;;;13.90;6.17;;;;;;;3.33;100.00;100313.61;1741131;81;21578;-69
2022/12/09 13:20:58;;;;;;;17.63;7.57;;;;;;;3.34;100.00;100309.98;1717139;84;21522;-68
2022/12/09 13:23:47;;;;;;;15.37;6.90;;;;;;;3.32;100.00;100310.09;1759871;81;21520;-68
2022/12/09 13:26:36;;;;;;;21.27;8.07;;;;;;;3.33;100.00;100301.58;1761439;80;21054;-67
2022/12/09 13:29:37;;;;;;;25.60;9.67;;;;;;;3.33;100.00;100309.60;1748089;82;21052;-67
2022/12/09 13:32:34;;;;;;;17.47;7.60;;;;;;;3.32;100.00;100307.92;1759698;81;21078;-68
2022/12/09 13:35:26;;;;;;;20.33;8.07;;;;;;;3.31;100.00;100313.76;1758891;81;21097;-68
2022/12/09 13:37:56;;;;;;;20.77;8.13;;;;;;;3.30;100.00;100296.50;1759471;81;21582;-66
2022/12/09 13:40:37;;;;;;;22.43;8.17;;;;;;;3.29;100.00;100298.30;1759559;81;21129;-69
2022/12/09 13:43:26;;;;;;;21.13;7.47;;;;;;;3.28;100.00;100296.61;1716797;84;21053;-68
2022/12/09 13:45:57;;;;;;;23.30;8.30;;;;;;;3.29;100.00;100294.28;1726551;81;21042;-69
2022/12/09 13:48:39;;;;;;;19.50;7.60;;;;;;;3.27;100.00;100286.88;1746198;82;21475;-69
2022/12/09 13:51:06;;;;;;;24.90;9.90;;;;;;;3.27;100.00;100288.70;1769944;81;21029;-69
2022/12/09 13:53:53;;;;;;;21.97;8.97;;;;;;;3.27;100.00;100289.55;1770007;81;21505;-70
2022/12/09 13:56:27;;;;;;;22.40;8.93;;;;;;;3.26;100.00;100281.64;1758246;81;21026;-71
2022/12/09 13:59:40;;;;;;;21.40;8.73;;;;;;;3.25;100.00;100276.80;1758372;81;21064;-70
2022/12/09 14:02:21;;;;;;;20.17;8.60;;;;;;;3.26;100.00;100282.98;1746900;81;21080;-69
2022/12/09 14:21:27;;;;;;;17.83;8.63;;;;;;;3.41;100.00;100533.09;1786512;79;23014;-76
2022/12/09 14:24:15;;;;;;;22.83;10.17;;;;;;;3.42;100.00;100236.24;1767956;81;21006;-77
2022/12/09 14:27:00;;;;;;;22.20;9.83;;;;;;;3.43;100.00;100234.41;1756941;82;21061;-78
2022/12/09 14:29:55;;;;;;;23.73;9.47;;;;;;;3.39;100.00;100236.97;1747824;82;20998;-75
2022/12/09 14:32:31;;;;;;;19.57;8.53;;;;;;;3.36;100.00;100239.88;1756475;82;21071;-77
2022/12/09 14:35:16;;;;;;;23.67;10.17;;;;;;;3.33;100.00;100239.64;1727315;82;21070;-77
2022/12/09 14:38:04;;;;;;;21.53;9.80;;;;;;;3.32;100.00;100245.95;1764740;81;21037;-79
2022/12/09 14:40:54;;;;;;;25.73;10.30;;;;;;;3.31;100.00;100243.39;1772258;81;21015;-76
2022/12/09 14:43:54;;;;;;;22.20;10.13;;;;;;;3.30;100.00;100255.91;1766169;81;21002;-79
2022/12/09 14:46:34;;;;;;;24.27;10.67;;;;;;;3.28;100.00;100248.50;1757014;82;21049;-77
2022/12/09 14:49:18;;;;;;;23.97;10.33;;;;;;;3.26;100.00;100242.43;1757002;82;21512;-77
2022/12/09 14:51:58;;;;;;;27.73;10.40;;;;;;;3.25;100.00;100239.88;1756820;82;21456;-76
2022/12/09 14:54:31;;;;;;;27.53;10.53;;;;;;;3.23;100.00;100239.49;1756831;82;21026;-78
2022/12/09 14:56:59;;;;;;;;;;;;;;;3.23;100.00;100233.30;1766792;81;21041;-78
2022/12/09 14:59:29;;;;;;;22.27;9.53;;;;;;;3.23;100.00;100233.30;1763869;81;20097;-75